sensor_id;sensor_type;location;lat;lon;timestamp;temperature;humidity
52555;DHT22;38455;52.710;6.502;2023-02-23T00:01:20;8.00;99.90
52555;DHT22;38455;52.710;6.502;2023-02-23T00:03:49;8.00;99.90
52555;DHT22;38455;52.710;6.502;2023-02-23T00:06:16;8.00;99.90
52555;DHT22;38455;52.710;6.502;2023-02-23T00:08:43;7.90;99.90
52555;DHT22;38455;52.710;6.502;2023-02-23T00:11:10;7.90;99.90
52555;DHT22;38455;52.710;6.502;2023-02-23T00:13:37;7.90;99.90
52555;DHT22;38455;52.710;6.502;2023-02-23T00:16:07;7.90;99.90
52555;DHT22;38455;52.710;6.502;2023-02-23T00:18:34;7.90;99.90
52555;DHT22;38455;52.710;6.502;2023-02-23T00:21:17;7.90;99.90
52555;DHT22;38455;52.710;6.502;2023-02-23T00:23:48;7.90;99.90
52555;DHT22;38455;52.710;6.502;2023-02-23T00:26:14;7.90;99.90
52555;DHT22;38455;52.710;6.502;2023-02-23T00:28:42;7.90;99.90
52555;DHT22;38455;52.710;6.502;2023-02-23T00:31:08;7.90;99.90
52555;DHT22;38455;52.710;6.502;2023-02-23T00:33:34;8.00;99.90
52555;DHT22;38455;52.710;6.502;2023-02-23T00:36:05;8.00;99.90
52555;DHT22;38455;52.710;6.502;2023-02-23T00:38:32;8.00;99.90
52555;DHT22;38455;52.710;6.502;2023-02-23T00:41:07;8.00;99.90
52555;DHT22;38455;52.710;6.502;2023-02-23T00:43:38;8.00;99.90
52555;DHT22;38455;52.710;6.502;2023-02-23T00:46:18;8.00;99.90
52555;DHT22;38455;52.710;6.502;2023-02-23T00:48:47;8.00;99.90
52555;DHT22;38455;52.710;6.502;2023-02-23T00:51:13;8.00;99.90
52555;DHT22;38455;52.710;6.502;2023-02-23T00:53:39;8.00;99.90
52555;DHT22;38455;52.710;6.502;2023-02-23T00:56:06;8.00;99.90
52555;DHT22;38455;52.710;6.502;2023-02-23T00:58:32;8.00;99.90
52555;DHT22;38455;52.710;6.502;2023-02-23T01:00:58;8.00;99.90
52555;DHT22;38455;52.710;6.502;2023-02-23T01:03:28;8.00;99.90
52555;DHT22;38455;52.710;6.502;2023-02-23T01:05:58;8.10;99.90
52555;DHT22;38455;52.710;6.502;2023-02-23T01:08:24;8.00;99.90
52555;DHT22;38455;52.710;6.502;2023-02-23T01:10:51;8.10;99.90
52555;DHT22;38455;52.710;6.502;2023-02-23T01:13:19;8.10;99.90
52555;DHT22;38455;52.710;6.502;2023-02-23T01:15:45;8.10;99.90
52555;DHT22;38455;52.710;6.502;2023-02-23T01:18:14;8.10;99.90
52555;DHT22;38455;52.710;6.502;2023-02-23T01:20:40;8.10;99.90
52555;DHT22;38455;52.710;6.502;2023-02-23T01:23:12;8.10;99.90
52555;DHT22;38455;52.710;6.502;2023-02-23T01:25:43;8.10;99.90
52555;DHT22;38455;52.710;6.502;2023-02-23T01:28:12;8.10;99.90
52555;DHT22;38455;52.710;6.502;2023-02-23T01:30:38;8.10;99.90
52555;DHT22;38455;52.710;6.502;2023-02-23T01:33:04;8.10;99.90
52555;DHT22;38455;52.710;6.502;2023-02-23T01:35:30;8.20;99.90
52555;DHT22;38455;52.710;6.502;2023-02-23T01:37:58;8.10;99.90
52555;DHT22;38455;52.710;6.502;2023-02-23T01:40:24;8.20;99.90
52555;DHT22;38455;52.710;6.502;2023-02-23T01:42:56;8.10;99.90
52555;DHT22;38455;52.710;6.502;2023-02-23T01:45:33;8.10;99.90
52555;DHT22;38455;52.710;6.502;2023-02-23T01:48:11;8.20;99.90
52555;DHT22;38455;52.710;6.502;2023-02-23T01:53:11;8.10;99.90
52555;DHT22;38455;52.710;6.502;2023-02-23T01:55:38;8.20;99.90
52555;DHT22;38455;52.710;6.502;2023-02-23T01:58:10;8.20;99.90
52555;DHT22;38455;52.710;6.502;2023-02-23T02:00:42;8.10;99.90
52555;DHT22;38455;52.710;6.502;2023-02-23T02:03:11;8.20;99.90
52555;DHT22;38455;52.710;6.502;2023-02-23T02:05:38;8.20;99.90
52555;DHT22;38455;52.710;6.502;2023-02-23T02:08:06;8.20;99.90
52555;DHT22;38455;52.710;6.502;2023-02-23T02:10:35;8.10;99.90
52555;DHT22;38455;52.710;6.502;2023-02-23T02:13:05;8.20;99.90
52555;DHT22;38455;52.710;6.502;2023-02-23T02:15:34;8.20;99.90
52555;DHT22;38455;52.710;6.502;2023-02-23T02:18:30;8.20;99.90
52555;DHT22;38455;52.710;6.502;2023-02-23T02:34:56;8.10;99.90
52555;DHT22;38455;52.710;6.502;2023-02-23T02:37:45;8.10;99.90
52555;DHT22;38455;52.710;6.502;2023-02-23T02:40:25;8.10;99.90
52555;DHT22;38455;52.710;6.502;2023-02-23T02:43:14;8.10;99.90
52555;DHT22;38455;52.710;6.502;2023-02-23T02:50:53;8.10;99.90
52555;DHT22;38455;52.710;6.502;2023-02-23T02:53:38;8.10;99.90
52555;DHT22;38455;52.710;6.502;2023-02-23T02:56:06;8.10;99.90
52555;DHT22;38455;52.710;6.502;2023-02-23T02:58:32;8.10;99.90
52555;DHT22;38455;52.710;6.502;2023-02-23T03:01:06;8.00;99.90
52555;DHT22;38455;52.710;6.502;2023-02-23T03:03:51;8.00;99.90
52555;DHT22;38455;52.710;6.502;2023-02-23T03:06:45;8.00;99.90
52555;DHT22;38455;52.710;6.502;2023-02-23T03:09:41;8.00;99.90
52555;DHT22;38455;52.710;6.502;2023-02-23T03:18:57;8.00;99.90
52555;DHT22;38455;52.710;6.502;2023-02-23T03:21:51;8.00;99.90
52555;DHT22;38455;52.710;6.502;2023-02-23T03:24:41;8.00;99.90
52555;DHT22;38455;52.710;6.502;2023-02-23T03:28:02;8.00;99.90
52555;DHT22;38455;52.710;6.502;2023-02-23T03:34:15;8.00;99.90
52555;DHT22;38455;52.710;6.502;2023-02-23T03:37:10;7.90;99.90
52555;DHT22;38455;52.710;6.502;2023-02-23T03:40:03;7.90;99.90
52555;DHT22;38455;52.710;6.502;2023-02-23T03:42:51;7.90;99.90
52555;DHT22;38455;52.710;6.502;2023-02-23T03:45:36;7.90;99.90
52555;DHT22;38455;52.710;6.502;2023-02-23T03:48:23;7.90;99.90
52555;DHT22;38455;52.710;6.502;2023-02-23T03:51:11;7.90;99.90
52555;DHT22;38455;52.710;6.502;2023-02-23T03:54:06;7.90;99.90
52555;DHT22;38455;52.710;6.502;2023-02-23T03:56:55;7.90;99.90
52555;DHT22;38455;52.710;6.502;2023-02-23T03:59:49;7.90;99.90
52555;DHT22;38455;52.710;6.502;2023-02-23T04:02:36;7.90;99.90
52555;DHT22;38455;52.710;6.502;2023-02-23T04:05:22;7.80;99.90
52555;DHT22;38455;52.710;6.502;2023-02-23T04:08:10;7.90;99.90
52555;DHT22;38455;52.710;6.502;2023-02-23T04:11:01;7.90;99.90
52555;DHT22;38455;52.710;6.502;2023-02-23T04:13:53;7.90;99.90
52555;DHT22;38455;52.710;6.502;2023-02-23T04:16:20;7.80;99.90
52555;DHT22;38455;52.710;6.502;2023-02-23T04:18:46;7.90;99.90
52555;DHT22;38455;52.710;6.502;2023-02-23T04:21:12;7.90;99.90
52555;DHT22;38455;52.710;6.502;2023-02-23T04:23:39;7.90;99.90
52555;DHT22;38455;52.710;6.502;2023-02-23T04:26:05;7.90;99.90
52555;DHT22;38455;52.710;6.502;2023-02-23T04:28:31;7.90;99.90
52555;DHT22;38455;52.710;6.502;2023-02-23T04:30:57;7.90;99.90
52555;DHT22;38455;52.710;6.502;2023-02-23T04:33:22;7.90;99.90
52555;DHT22;38455;52.710;6.502;2023-02-23T04:35:53;7.90;99.90
52555;DHT22;38455;52.710;6.502;2023-02-23T04:38:20;7.90;99.90
52555;DHT22;38455;52.710;6.502;2023-02-23T04:40:46;7.90;99.90
52555;DHT22;38455;52.710;6.502;2023-02-23T04:43:12;7.80;99.90
52555;DHT22;38455;52.710;6.502;2023-02-23T04:45:38;7.80;99.90
52555;DHT22;38455;52.710;6.502;2023-02-23T04:48:04;7.80;99.90
52555;DHT22;38455;52.710;6.502;2023-02-23T04:50:30;7.80;99.90
52555;DHT22;38455;52.710;6.502;2023-02-23T04:52:56;7.80;99.90
52555;DHT22;38455;52.710;6.502;2023-02-23T04:55:24;7.80;99.90
52555;DHT22;38455;52.710;6.502;2023-02-23T04:57:51;7.80;99.90
52555;DHT22;38455;52.710;6.502;2023-02-23T05:00:18;7.80;99.90
52555;DHT22;38455;52.710;6.502;2023-02-23T05:02:44;7.80;99.90
52555;DHT22;38455;52.710;6.502;2023-02-23T05:05:10;7.80;99.90
52555;DHT22;38455;52.710;6.502;2023-02-23T05:07:36;7.80;99.90
52555;DHT22;38455;52.710;6.502;2023-02-23T05:10:04;7.80;99.90
52555;DHT22;38455;52.710;6.502;2023-02-23T05:12:30;7.80;99.90
52555;DHT22;38455;52.710;6.502;2023-02-23T05:14:56;7.90;99.90
52555;DHT22;38455;52.710;6.502;2023-02-23T05:17:22;7.80;99.90
52555;DHT22;38455;52.710;6.502;2023-02-23T05:19:48;7.80;99.90
52555;DHT22;38455;52.710;6.502;2023-02-23T05:22:14;7.80;99.90
52555;DHT22;38455;52.710;6.502;2023-02-23T05:24:40;7.80;99.90
52555;DHT22;38455;52.710;6.502;2023-02-23T05:27:08;7.80;99.90
52555;DHT22;38455;52.710;6.502;2023-02-23T05:29:34;7.70;99.90
52555;DHT22;38455;52.710;6.502;2023-02-23T05:31:59;7.80;99.90
52555;DHT22;38455;52.710;6.502;2023-02-23T05:34:25;7.70;99.90
52555;DHT22;38455;52.710;6.502;2023-02-23T05:36:51;7.70;99.90
52555;DHT22;38455;52.710;6.502;2023-02-23T05:39:18;7.70;99.90
52555;DHT22;38455;52.710;6.502;2023-02-23T05:41:43;7.70;99.90
52555;DHT22;38455;52.710;6.502;2023-02-23T05:44:09;7.60;99.90
52555;DHT22;38455;52.710;6.502;2023-02-23T05:46:35;7.60;99.90
52555;DHT22;38455;52.710;6.502;2023-02-23T05:49:01;7.60;99.90
52555;DHT22;38455;52.710;6.502;2023-02-23T05:51:29;7.60;99.90
52555;DHT22;38455;52.710;6.502;2023-02-23T05:53:55;7.60;99.90
52555;DHT22;38455;52.710;6.502;2023-02-23T05:56:21;7.60;99.90
52555;DHT22;38455;52.710;6.502;2023-02-23T05:58:51;7.60;99.90
52555;DHT22;38455;52.710;6.502;2023-02-23T06:01:18;7.60;99.90
52555;DHT22;38455;52.710;6.502;2023-02-23T06:03:44;7.60;99.90
52555;DHT22;38455;52.710;6.502;2023-02-23T06:06:10;7.60;99.90
52555;DHT22;38455;52.710;6.502;2023-02-23T06:08:36;7.60;99.90
52555;DHT22;38455;52.710;6.502;2023-02-23T06:11:02;7.60;99.90
52555;DHT22;38455;52.710;6.502;2023-02-23T06:13:29;7.60;99.90
52555;DHT22;38455;52.710;6.502;2023-02-23T06:15:56;7.60;99.90
52555;DHT22;38455;52.710;6.502;2023-02-23T06:18:22;7.60;99.90
52555;DHT22;38455;52.710;6.502;2023-02-23T06:20:47;7.60;99.90
52555;DHT22;38455;52.710;6.502;2023-02-23T06:23:13;7.60;99.90
52555;DHT22;38455;52.710;6.502;2023-02-23T06:25:43;7.50;99.90
52555;DHT22;38455;52.710;6.502;2023-02-23T06:28:10;7.60;99.90
52555;DHT22;38455;52.710;6.502;2023-02-23T06:30:36;7.60;99.90
52555;DHT22;38455;52.710;6.502;2023-02-23T06:33:03;7.60;99.90
52555;DHT22;38455;52.710;6.502;2023-02-23T06:35:30;7.60;99.90
52555;DHT22;38455;52.710;6.502;2023-02-23T06:37:57;7.60;99.90
52555;DHT22;38455;52.710;6.502;2023-02-23T06:40:23;7.60;99.90
52555;DHT22;38455;52.710;6.502;2023-02-23T06:42:48;7.60;99.90
52555;DHT22;38455;52.710;6.502;2023-02-23T06:45:15;7.50;99.90
52555;DHT22;38455;52.710;6.502;2023-02-23T06:47:41;7.50;99.90
52555;DHT22;38455;52.710;6.502;2023-02-23T06:50:07;7.60;99.90
52555;DHT22;38455;52.710;6.502;2023-02-23T06:52:33;7.50;99.90
52555;DHT22;38455;52.710;6.502;2023-02-23T06:54:59;7.60;99.90
52555;DHT22;38455;52.710;6.502;2023-02-23T06:57:25;7.60;99.90
52555;DHT22;38455;52.710;6.502;2023-02-23T06:59:50;7.60;99.90
52555;DHT22;38455;52.710;6.502;2023-02-23T07:02:16;7.60;99.90
52555;DHT22;38455;52.710;6.502;2023-02-23T07:04:42;7.60;99.90
52555;DHT22;38455;52.710;6.502;2023-02-23T07:07:09;7.60;99.90
52555;DHT22;38455;52.710;6.502;2023-02-23T07:09:34;7.60;99.90
52555;DHT22;38455;52.710;6.502;2023-02-23T07:12:00;7.60;99.90
52555;DHT22;38455;52.710;6.502;2023-02-23T07:14:26;7.60;99.90
52555;DHT22;38455;52.710;6.502;2023-02-23T07:16:52;7.60;99.90
52555;DHT22;38455;52.710;6.502;2023-02-23T07:19:17;7.60;99.90
52555;DHT22;38455;52.710;6.502;2023-02-23T07:21:43;7.60;99.90
52555;DHT22;38455;52.710;6.502;2023-02-23T07:24:09;7.60;99.90
52555;DHT22;38455;52.710;6.502;2023-02-23T07:26:34;7.60;99.90
52555;DHT22;38455;52.710;6.502;2023-02-23T07:29:00;7.60;99.90
52555;DHT22;38455;52.710;6.502;2023-02-23T07:31:26;7.60;99.90
52555;DHT22;38455;52.710;6.502;2023-02-23T07:33:53;7.60;99.90
52555;DHT22;38455;52.710;6.502;2023-02-23T07:36:22;7.60;99.90
52555;DHT22;38455;52.710;6.502;2023-02-23T07:38:48;7.60;99.90
52555;DHT22;38455;52.710;6.502;2023-02-23T07:41:14;7.60;99.90
52555;DHT22;38455;52.710;6.502;2023-02-23T07:43:40;7.70;99.90
52555;DHT22;38455;52.710;6.502;2023-02-23T07:46:06;7.70;99.90
52555;DHT22;38455;52.710;6.502;2023-02-23T07:48:33;7.60;99.90
52555;DHT22;38455;52.710;6.502;2023-02-23T07:50:58;7.70;99.90
52555;DHT22;38455;52.710;6.502;2023-02-23T07:53:24;7.70;99.90
52555;DHT22;38455;52.710;6.502;2023-02-23T07:55:59;7.70;99.90
52555;DHT22;38455;52.710;6.502;2023-02-23T07:58:25;7.60;99.90
52555;DHT22;38455;52.710;6.502;2023-02-23T08:00:51;7.70;99.90
52555;DHT22;38455;52.710;6.502;2023-02-23T08:03:17;7.70;99.90
52555;DHT22;38455;52.710;6.502;2023-02-23T08:05:43;7.60;99.90
52555;DHT22;38455;52.710;6.502;2023-02-23T08:08:09;7.60;99.90
52555;DHT22;38455;52.710;6.502;2023-02-23T08:10:35;7.60;99.90
52555;DHT22;38455;52.710;6.502;2023-02-23T08:13:02;7.60;99.90
52555;DHT22;38455;52.710;6.502;2023-02-23T08:15:28;7.70;99.90
52555;DHT22;38455;52.710;6.502;2023-02-23T08:17:53;7.70;99.90
52555;DHT22;38455;52.710;6.502;2023-02-23T08:20:19;7.70;99.90
52555;DHT22;38455;52.710;6.502;2023-02-23T08:22:45;7.70;99.90
52555;DHT22;38455;52.710;6.502;2023-02-23T08:25:10;7.70;99.90
52555;DHT22;38455;52.710;6.502;2023-02-23T08:27:37;7.70;99.90
52555;DHT22;38455;52.710;6.502;2023-02-23T08:30:04;7.70;99.90
52555;DHT22;38455;52.710;6.502;2023-02-23T08:32:33;7.70;99.90
52555;DHT22;38455;52.710;6.502;2023-02-23T08:35:01;7.70;99.90
52555;DHT22;38455;52.710;6.502;2023-02-23T08:37:28;7.80;99.90
52555;DHT22;38455;52.710;6.502;2023-02-23T08:39:55;7.80;99.90
52555;DHT22;38455;52.710;6.502;2023-02-23T08:42:21;7.80;99.90
52555;DHT22;38455;52.710;6.502;2023-02-23T08:44:46;7.80;99.90
52555;DHT22;38455;52.710;6.502;2023-02-23T08:47:14;7.80;99.90
52555;DHT22;38455;52.710;6.502;2023-02-23T08:49:41;7.80;99.90
52555;DHT22;38455;52.710;6.502;2023-02-23T08:52:07;7.80;99.90
52555;DHT22;38455;52.710;6.502;2023-02-23T08:54:32;7.80;99.90
52555;DHT22;38455;52.710;6.502;2023-02-23T08:56:58;7.80;99.90
52555;DHT22;38455;52.710;6.502;2023-02-23T08:59:24;7.80;99.90
52555;DHT22;38455;52.710;6.502;2023-02-23T09:01:51;7.80;99.90
52555;DHT22;38455;52.710;6.502;2023-02-23T09:04:17;7.90;99.90
52555;DHT22;38455;52.710;6.502;2023-02-23T09:06:43;7.80;99.90
52555;DHT22;38455;52.710;6.502;2023-02-23T09:09:09;7.90;99.90
52555;DHT22;38455;52.710;6.502;2023-02-23T09:11:34;7.90;99.90
52555;DHT22;38455;52.710;6.502;2023-02-23T09:14:00;8.00;99.90
52555;DHT22;38455;52.710;6.502;2023-02-23T09:16:26;8.00;99.90
52555;DHT22;38455;52.710;6.502;2023-02-23T09:18:52;8.10;99.90
52555;DHT22;38455;52.710;6.502;2023-02-23T09:21:19;8.10;99.90
52555;DHT22;38455;52.710;6.502;2023-02-23T09:23:50;8.10;99.90
52555;DHT22;38455;52.710;6.502;2023-02-23T09:26:18;8.10;99.90
52555;DHT22;38455;52.710;6.502;2023-02-23T09:28:44;8.20;99.90
52555;DHT22;38455;52.710;6.502;2023-02-23T09:31:16;8.30;99.90
52555;DHT22;38455;52.710;6.502;2023-02-23T09:33:42;8.50;99.90
52555;DHT22;38455;52.710;6.502;2023-02-23T09:36:10;8.60;99.90
52555;DHT22;38455;52.710;6.502;2023-02-23T09:38:43;8.70;99.90
52555;DHT22;38455;52.710;6.502;2023-02-23T09:49:41;8.80;99.90
52555;DHT22;38455;52.710;6.502;2023-02-23T09:52:21;8.80;99.90
52555;DHT22;38455;52.710;6.502;2023-02-23T09:54:48;8.80;99.90
52555;DHT22;38455;52.710;6.502;2023-02-23T09:57:17;8.80;99.90
52555;DHT22;38455;52.710;6.502;2023-02-23T09:59:44;8.80;99.90
52555;DHT22;38455;52.710;6.502;2023-02-23T10:02:49;8.70;99.90
52555;DHT22;38455;52.710;6.502;2023-02-23T10:05:23;8.70;99.90
52555;DHT22;38455;52.710;6.502;2023-02-23T10:07:55;8.70;99.90
52555;DHT22;38455;52.710;6.502;2023-02-23T10:10:28;8.70;99.90
52555;DHT22;38455;52.710;6.502;2023-02-23T10:18:53;8.80;99.90
52555;DHT22;38455;52.710;6.502;2023-02-23T10:21:37;8.80;99.90
52555;DHT22;38455;52.710;6.502;2023-02-23T10:24:13;8.70;99.90
52555;DHT22;38455;52.710;6.502;2023-02-23T10:29:38;8.60;99.90
52555;DHT22;38455;52.710;6.502;2023-02-23T10:32:14;8.70;99.90
52555;DHT22;38455;52.710;6.502;2023-02-23T10:34:44;8.80;99.90
52555;DHT22;38455;52.710;6.502;2023-02-23T10:37:11;8.90;99.90
52555;DHT22;38455;52.710;6.502;2023-02-23T10:39:39;9.10;99.90
52555;DHT22;38455;52.710;6.502;2023-02-23T10:42:07;9.20;99.90
52555;DHT22;38455;52.710;6.502;2023-02-23T10:44:37;9.30;99.90
52555;DHT22;38455;52.710;6.502;2023-02-23T10:47:10;9.40;99.90
52555;DHT22;38455;52.710;6.502;2023-02-23T10:49:49;9.50;99.90
52555;DHT22;38455;52.710;6.502;2023-02-23T10:52:40;9.60;99.90
52555;DHT22;38455;52.710;6.502;2023-02-23T10:55:18;9.70;99.90
52555;DHT22;38455;52.710;6.502;2023-02-23T10:57:47;9.70;99.90
52555;DHT22;38455;52.710;6.502;2023-02-23T11:02:44;9.60;99.90
52555;DHT22;38455;52.710;6.502;2023-02-23T11:05:36;9.60;99.90
52555;DHT22;38455;52.710;6.502;2023-02-23T11:11:16;9.50;99.90
52555;DHT22;38455;52.710;6.502;2023-02-23T11:13:45;9.30;99.90
52555;DHT22;38455;52.710;6.502;2023-02-23T11:16:19;9.30;99.90
52555;DHT22;38455;52.710;6.502;2023-02-23T11:18:52;9.30;99.90
52555;DHT22;38455;52.710;6.502;2023-02-23T11:23:56;9.30;99.90
52555;DHT22;38455;52.710;6.502;2023-02-23T11:26:28;9.40;99.90
52555;DHT22;38455;52.710;6.502;2023-02-23T11:29:11;9.30;99.90
52555;DHT22;38455;52.710;6.502;2023-02-23T11:31:37;9.30;99.90
52555;DHT22;38455;52.710;6.502;2023-02-23T11:34:05;9.20;99.90
52555;DHT22;38455;52.710;6.502;2023-02-23T11:36:33;9.30;99.90
52555;DHT22;38455;52.710;6.502;2023-02-23T11:41:40;9.40;99.90
52555;DHT22;38455;52.710;6.502;2023-02-23T11:44:06;9.30;99.90
52555;DHT22;38455;52.710;6.502;2023-02-23T11:46:35;9.30;99.90
52555;DHT22;38455;52.710;6.502;2023-02-23T11:49:07;9.20;99.90
52555;DHT22;38455;52.710;6.502;2023-02-23T11:51:37;9.20;99.90
52555;DHT22;38455;52.710;6.502;2023-02-23T11:54:04;9.30;99.90
52555;DHT22;38455;52.710;6.502;2023-02-23T11:56:33;9.40;99.90
52555;DHT22;38455;52.710;6.502;2023-02-23T11:59:05;9.40;99.90
52555;DHT22;38455;52.710;6.502;2023-02-23T12:01:50;9.50;99.90
52555;DHT22;38455;52.710;6.502;2023-02-23T12:04:29;9.50;99.90
52555;DHT22;38455;52.710;6.502;2023-02-23T12:09:46;9.70;99.90
52555;DHT22;38455;52.710;6.502;2023-02-23T12:12:19;9.60;99.90
52555;DHT22;38455;52.710;6.502;2023-02-23T12:14:55;9.50;99.90
52555;DHT22;38455;52.710;6.502;2023-02-23T12:17:26;9.50;99.90
52555;DHT22;38455;52.710;6.502;2023-02-23T12:20:09;9.40;99.90
52555;DHT22;38455;52.710;6.502;2023-02-23T12:23:02;9.40;99.90
52555;DHT22;38455;52.710;6.502;2023-02-23T12:25:33;9.40;99.90
52555;DHT22;38455;52.710;6.502;2023-02-23T12:28:10;9.30;99.90
52555;DHT22;38455;52.710;6.502;2023-02-23T12:30:57;9.40;99.90
52555;DHT22;38455;52.710;6.502;2023-02-23T12:33:38;9.30;99.90
52555;DHT22;38455;52.710;6.502;2023-02-23T12:36:22;9.40;99.90
52555;DHT22;38455;52.710;6.502;2023-02-23T12:39:00;9.50;99.90
52555;DHT22;38455;52.710;6.502;2023-02-23T12:41:43;9.50;99.90
52555;DHT22;38455;52.710;6.502;2023-02-23T12:46:47;9.60;99.90
52555;DHT22;38455;52.710;6.502;2023-02-23T12:49:29;9.60;99.90
52555;DHT22;38455;52.710;6.502;2023-02-23T12:52:15;9.50;99.90
52555;DHT22;38455;52.710;6.502;2023-02-23T12:54:43;9.50;99.90
52555;DHT22;38455;52.710;6.502;2023-02-23T13:19:34;9.40;99.90
52555;DHT22;38455;52.710;6.502;2023-02-23T13:25:03;9.30;99.90
52555;DHT22;38455;52.710;6.502;2023-02-23T13:27:38;9.20;99.90
52555;DHT22;38455;52.710;6.502;2023-02-23T13:30:09;9.20;99.90
52555;DHT22;38455;52.710;6.502;2023-02-23T13:32:35;9.20;99.90
52555;DHT22;38455;52.710;6.502;2023-02-23T13:35:06;9.30;99.90
52555;DHT22;38455;52.710;6.502;2023-02-23T13:37:51;9.50;99.90
52555;DHT22;38455;52.710;6.502;2023-02-23T13:48:34;9.90;99.90
52555;DHT22;38455;52.710;6.502;2023-02-23T13:56:50;9.80;99.90
52555;DHT22;38455;52.710;6.502;2023-02-23T13:59:20;9.80;99.90
52555;DHT22;38455;52.710;6.502;2023-02-23T14:01:51;9.80;99.90
52555;DHT22;38455;52.710;6.502;2023-02-23T14:04:26;9.80;99.90
52555;DHT22;38455;52.710;6.502;2023-02-23T14:09:36;9.80;99.90
52555;DHT22;38455;52.710;6.502;2023-02-23T14:18:01;9.80;99.90
52555;DHT22;38455;52.710;6.502;2023-02-23T14:25:50;9.80;99.90
52555;DHT22;38455;52.710;6.502;2023-02-23T14:31:00;9.70;99.90
52555;DHT22;38455;52.710;6.502;2023-02-23T14:33:37;9.70;99.90
52555;DHT22;38455;52.710;6.502;2023-02-23T14:38:46;9.60;99.90
52555;DHT22;38455;52.710;6.502;2023-02-23T14:41:21;9.60;99.90
52555;DHT22;38455;52.710;6.502;2023-02-23T14:43:52;9.60;99.90
52555;DHT22;38455;52.710;6.502;2023-02-23T14:46:22;9.60;99.90
52555;DHT22;38455;52.710;6.502;2023-02-23T14:49:09;9.60;99.90
52555;DHT22;38455;52.710;6.502;2023-02-23T14:51:44;9.50;99.90
52555;DHT22;38455;52.710;6.502;2023-02-23T14:54:30;9.40;99.90
52555;DHT22;38455;52.710;6.502;2023-02-23T14:56:58;9.30;99.90
52555;DHT22;38455;52.710;6.502;2023-02-23T14:59:41;9.30;99.90
52555;DHT22;38455;52.710;6.502;2023-02-23T15:02:18;9.20;99.90
52555;DHT22;38455;52.710;6.502;2023-02-23T15:04:45;9.00;99.90
52555;DHT22;38455;52.710;6.502;2023-02-23T15:09:50;8.70;99.90
52555;DHT22;38455;52.710;6.502;2023-02-23T15:12:22;8.60;99.90
52555;DHT22;38455;52.710;6.502;2023-02-23T15:14:52;8.50;99.90
52555;DHT22;38455;52.710;6.502;2023-02-23T15:17:22;8.50;99.90
52555;DHT22;38455;52.710;6.502;2023-02-23T15:19:54;8.40;99.90
52555;DHT22;38455;52.710;6.502;2023-02-23T15:22:34;8.30;99.90
52555;DHT22;38455;52.710;6.502;2023-02-23T15:25:05;8.30;99.90
52555;DHT22;38455;52.710;6.502;2023-02-23T15:27:39;8.20;99.90
52555;DHT22;38455;52.710;6.502;2023-02-23T15:30:25;8.20;99.90
52555;DHT22;38455;52.710;6.502;2023-02-23T15:33:18;8.10;99.90
52555;DHT22;38455;52.710;6.502;2023-02-23T15:36:12;8.10;99.90
52555;DHT22;38455;52.710;6.502;2023-02-23T15:38:42;7.90;99.90
52555;DHT22;38455;52.710;6.502;2023-02-23T15:41:17;7.90;99.90
52555;DHT22;38455;52.710;6.502;2023-02-23T15:43:47;7.80;99.90
52555;DHT22;38455;52.710;6.502;2023-02-23T15:46:25;7.80;99.90
52555;DHT22;38455;52.710;6.502;2023-02-23T15:48:54;7.80;99.90
52555;DHT22;38455;52.710;6.502;2023-02-23T15:53:54;7.70;99.90
52555;DHT22;38455;52.710;6.502;2023-02-23T15:56:25;7.70;99.90
52555;DHT22;38455;52.710;6.502;2023-02-23T15:59:01;7.80;99.90
52555;DHT22;38455;52.710;6.502;2023-02-23T16:01:28;7.70;99.90
52555;DHT22;38455;52.710;6.502;2023-02-23T16:04:16;7.70;99.90
52555;DHT22;38455;52.710;6.502;2023-02-23T16:06:50;7.70;99.90
52555;DHT22;38455;52.710;6.502;2023-02-23T16:12:02;7.70;99.90
52555;DHT22;38455;52.710;6.502;2023-02-23T16:14:44;7.70;99.90
52555;DHT22;38455;52.710;6.502;2023-02-23T16:17:46;7.80;99.90
52555;DHT22;38455;52.710;6.502;2023-02-23T16:20:38;7.70;99.90
52555;DHT22;38455;52.710;6.502;2023-02-23T16:23:21;7.70;99.90
52555;DHT22;38455;52.710;6.502;2023-02-23T16:25:52;7.60;99.90
52555;DHT22;38455;52.710;6.502;2023-02-23T16:28:20;7.60;99.90
52555;DHT22;38455;52.710;6.502;2023-02-23T16:30:57;7.50;99.90
52555;DHT22;38455;52.710;6.502;2023-02-23T16:33:24;7.40;99.90
52555;DHT22;38455;52.710;6.502;2023-02-23T16:36:18;7.30;99.90
52555;DHT22;38455;52.710;6.502;2023-02-23T16:38:57;7.30;99.90
52555;DHT22;38455;52.710;6.502;2023-02-23T16:41:24;7.30;99.90
52555;DHT22;38455;52.710;6.502;2023-02-23T16:43:52;7.20;99.90
52555;DHT22;38455;52.710;6.502;2023-02-23T16:46:19;7.20;99.90
52555;DHT22;38455;52.710;6.502;2023-02-23T16:48:46;7.20;99.90
52555;DHT22;38455;52.710;6.502;2023-02-23T16:51:18;7.20;99.90
52555;DHT22;38455;52.710;6.502;2023-02-23T16:53:44;7.20;99.90
52555;DHT22;38455;52.710;6.502;2023-02-23T16:56:12;7.20;99.90
52555;DHT22;38455;52.710;6.502;2023-02-23T16:58:43;7.10;99.90
52555;DHT22;38455;52.710;6.502;2023-02-23T17:01:12;7.10;99.90
52555;DHT22;38455;52.710;6.502;2023-02-23T17:03:41;7.10;99.90
52555;DHT22;38455;52.710;6.502;2023-02-23T17:06:10;7.10;99.90
52555;DHT22;38455;52.710;6.502;2023-02-23T17:08:37;7.10;99.90
52555;DHT22;38455;52.710;6.502;2023-02-23T17:11:03;7.10;99.90
52555;DHT22;38455;52.710;6.502;2023-02-23T17:13:30;7.10;99.90
52555;DHT22;38455;52.710;6.502;2023-02-23T17:16:01;7.10;99.90
52555;DHT22;38455;52.710;6.502;2023-02-23T17:18:35;7.10;99.90
52555;DHT22;38455;52.710;6.502;2023-02-23T17:21:05;7.00;99.90
52555;DHT22;38455;52.710;6.502;2023-02-23T17:23:36;7.00;99.90
52555;DHT22;38455;52.710;6.502;2023-02-23T17:26:17;7.00;99.90
52555;DHT22;38455;52.710;6.502;2023-02-23T17:28:43;7.00;99.90
52555;DHT22;38455;52.710;6.502;2023-02-23T17:31:10;7.00;99.90
52555;DHT22;38455;52.710;6.502;2023-02-23T17:33:36;7.00;99.90
52555;DHT22;38455;52.710;6.502;2023-02-23T17:36:06;7.00;99.90
52555;DHT22;38455;52.710;6.502;2023-02-23T17:38:31;7.00;99.90
52555;DHT22;38455;52.710;6.502;2023-02-23T17:41:05;7.00;99.90
52555;DHT22;38455;52.710;6.502;2023-02-23T17:43:34;6.90;99.90
52555;DHT22;38455;52.710;6.502;2023-02-23T17:46:02;6.90;99.90
52555;DHT22;38455;52.710;6.502;2023-02-23T17:48:28;6.90;99.90
52555;DHT22;38455;52.710;6.502;2023-02-23T17:51:07;6.90;99.90
52555;DHT22;38455;52.710;6.502;2023-02-23T17:53:36;6.90;99.90
52555;DHT22;38455;52.710;6.502;2023-02-23T17:56:03;6.90;99.90
52555;DHT22;38455;52.710;6.502;2023-02-23T17:58:29;6.90;99.90
52555;DHT22;38455;52.710;6.502;2023-02-23T18:00:57;6.90;99.90
52555;DHT22;38455;52.710;6.502;2023-02-23T18:03:24;6.90;99.90
52555;DHT22;38455;52.710;6.502;2023-02-23T18:05:58;6.90;99.90
52555;DHT22;38455;52.710;6.502;2023-02-23T18:08:24;6.90;99.90
52555;DHT22;38455;52.710;6.502;2023-02-23T18:10:51;6.90;99.90
52555;DHT22;38455;52.710;6.502;2023-02-23T18:13:17;6.90;99.90
52555;DHT22;38455;52.710;6.502;2023-02-23T18:15:50;6.90;99.90
52555;DHT22;38455;52.710;6.502;2023-02-23T18:18:16;6.80;99.90
52555;DHT22;38455;52.710;6.502;2023-02-23T18:20:54;6.80;99.90
52555;DHT22;38455;52.710;6.502;2023-02-23T18:23:20;6.80;99.90